createdAt,value
2022-08-09T00:00:29.195Z,91582.13
2022-08-09T00:02:56.983Z,91573.84
2022-08-09T00:06:19.789Z,91572.34
2022-08-09T00:08:32.500Z,91584.44
2022-08-09T00:11:00.726Z,91569.78
2022-08-09T00:13:38.461Z,91577.06
2022-08-09T00:16:07.829Z,91581.22
2022-08-09T00:18:39.635Z,91567.97
2022-08-09T00:21:08.725Z,91570.97
2022-08-09T00:23:55.460Z,91568.00
2022-08-09T00:26:32.740Z,91567.63
2022-08-09T00:29:00.648Z,91569.94
2022-08-09T00:31:58.362Z,91571.75
2022-08-09T00:34:19.559Z,91571.00
2022-08-09T00:36:48.822Z,91572.53
2022-08-09T00:39:59.944Z,91575.19
2022-08-09T00:44:16.791Z,91572.53
2022-08-09T00:44:50.541Z,91568.03
2022-08-09T00:47:17.284Z,91551.44
2022-08-09T00:49:54.461Z,91565.72
2022-08-09T00:52:28.055Z,91556.34
2022-08-09T00:55:01.448Z,91562.00
2022-08-09T00:57:34.389Z,91562.03
2022-08-09T01:00:21.180Z,91564.41
2022-08-09T01:03:07.702Z,91559.84
2022-08-09T01:05:46.386Z,91566.63
2022-08-09T01:08:27.141Z,91567.38
2022-08-09T01:11:09.806Z,91548.56
2022-08-09T01:14:00.106Z,91550.47
2022-08-09T01:16:36.973Z,91558.75
2022-08-09T01:19:39.607Z,91556.91
2022-08-09T01:22:48.222Z,91555.00
2022-08-09T01:25:30.380Z,91554.63
2022-08-09T01:27:59.768Z,91551.59
2022-08-09T01:30:35.790Z,91554.63
2022-08-09T01:33:18.283Z,91558.47
2022-08-09T01:36:03.245Z,91555.06
2022-08-09T01:38:34.646Z,91562.97
2022-08-09T01:41:12.048Z,91550.91
2022-08-09T01:43:52.066Z,91557.28
2022-08-09T01:46:32.483Z,91568.19
2022-08-09T01:49:09.473Z,91559.16
2022-08-09T01:51:44.369Z,91558.03
2022-08-09T01:54:13.968Z,91547.84
2022-08-09T01:56:47.115Z,91550.88
2022-08-09T01:59:21.582Z,91544.50
2022-08-09T02:02:00.184Z,91542.97
2022-08-09T02:04:29.883Z,91535.47
2022-08-09T02:08:00.124Z,91539.25
2022-08-09T02:10:09.536Z,91540.03
2022-08-09T02:12:37.809Z,91535.16
2022-08-09T02:15:15.475Z,91523.09
2022-08-09T02:18:00.594Z,91537.41
2022-08-09T02:20:35.390Z,91534.75
2022-08-09T02:23:12.101Z,91534.00
2022-08-09T02:25:42.626Z,91540.00
2022-08-09T02:28:20.688Z,91544.91
2022-08-09T02:31:22.153Z,91552.06
2022-08-09T02:34:06.480Z,91539.31
2022-08-09T02:36:42.075Z,91536.66
2022-08-09T02:39:39.897Z,91538.16
2022-08-09T02:42:20.007Z,91539.28
2022-08-09T02:44:59.098Z,91544.97
2022-08-09T02:47:33.960Z,91536.66
2022-08-09T02:50:31.493Z,91543.44
2022-08-09T02:53:02.750Z,91541.53
2022-08-09T02:55:46.747Z,91546.06
2022-08-09T02:58:35.270Z,91544.59
2022-08-09T03:01:08.291Z,91547.94
2022-08-09T03:04:12.799Z,91542.72
2022-08-09T03:06:28.030Z,91531.00
2022-08-09T03:08:57.322Z,91548.72
2022-08-09T03:11:30.056Z,91538.91
2022-08-09T03:14:13.495Z,91546.47
2022-08-09T03:16:47.511Z,91535.19
2022-08-09T03:19:59.617Z,91528.78
2022-08-09T03:22:11.773Z,91518.97
2022-08-09T03:24:42.589Z,91539.28
2022-08-09T03:27:21.557Z,91535.91
2022-08-09T03:29:57.975Z,91546.47
2022-08-09T03:32:37.177Z,91542.72
2022-08-09T03:35:14.829Z,91532.91
2022-08-09T03:37:54.389Z,91541.19
2022-08-09T03:40:21.964Z,91534.41
2022-08-09T03:42:51.655Z,91533.28
2022-08-09T03:46:05.090Z,91527.25
2022-08-09T03:48:05.618Z,91515.97
2022-08-09T03:50:34.739Z,91523.13
2022-08-09T03:53:05.183Z,91514.84
2022-08-09T03:55:35.961Z,91520.84
2022-08-09T03:58:09.933Z,91516.69
2022-08-09T04:00:47.907Z,91514.78
2022-08-09T04:03:24.561Z,91505.78
2022-08-09T04:06:04.404Z,91480.53
2022-08-09T04:08:32.355Z,91516.63
2022-08-09T04:11:01.497Z,91516.97
2022-08-09T04:14:37.261Z,91514.72
2022-08-09T04:16:19.423Z,91514.00
2022-08-09T04:18:47.116Z,91508.66
2022-08-09T04:21:16.030Z,91505.22
2022-08-09T04:23:54.530Z,91501.88
2022-08-09T04:26:37.930Z,91509.38
2022-08-09T04:29:10.807Z,91510.81
2022-08-09T04:31:46.908Z,91503.25
2022-08-09T04:34:14.577Z,91514.91
2022-08-09T04:36:50.334Z,91519.78
2022-08-09T04:39:17.308Z,91514.47
2022-08-09T04:41:46.588Z,91509.13
2022-08-09T04:44:14.706Z,91513.59
2022-08-09T04:46:58.078Z,91508.25
2022-08-09T04:49:53.846Z,91510.78
2022-08-09T04:52:26.352Z,91510.72
2022-08-09T04:54:56.572Z,91512.09
2022-08-09T04:57:24.342Z,91507.09
2022-08-09T04:59:54.143Z,91500.41
2022-08-09T05:02:21.456Z,91500.81
2022-08-09T05:04:48.714Z,91504.91
2022-08-09T05:07:22.246Z,91500.88
2022-08-09T05:09:50.392Z,91506.72
2022-08-09T05:12:18.943Z,91505.75
2022-08-09T05:14:52.449Z,91500.63
2022-08-09T05:18:39.623Z,91493.13
2022-08-09T05:20:06.974Z,91497.25
2022-08-09T05:23:54.404Z,91498.75
2022-08-09T05:25:21.692Z,91515.09
2022-08-09T05:27:52.144Z,91512.19
2022-08-09T05:30:29.927Z,91510.13
2022-08-09T05:33:05.504Z,91511.59
2022-08-09T05:35:45.879Z,91522.13
2022-08-09T05:38:23.313Z,91517.94
2022-08-09T05:40:55.580Z,91529.69
2022-08-09T05:43:24.049Z,91519.19
2022-08-09T05:45:57.964Z,91519.97
2022-08-09T05:48:27.863Z,91522.28
2022-08-09T05:51:16.824Z,91521.16
2022-08-09T05:53:57.891Z,91522.16
2022-08-09T05:56:26.155Z,91513.28
2022-08-09T05:58:58.758Z,91510.91
2022-08-09T06:01:33.772Z,91515.28
2022-08-09T06:04:09.673Z,91522.22
2022-08-09T06:06:49.687Z,91516.84
2022-08-09T06:09:53.973Z,91515.00
2022-08-09T06:12:17.594Z,91519.16
2022-08-09T06:14:56.415Z,91510.16
2022-08-09T06:17:39.778Z,91514.03
2022-08-09T06:20:37.748Z,91502.97
2022-08-09T06:23:07.899Z,91507.50
2022-08-09T06:25:40.228Z,91508.53
2022-08-09T06:28:10.226Z,91503.16
2022-08-09T06:30:43.394Z,91496.66
2022-08-09T06:33:30.388Z,91493.94
2022-08-09T06:36:07.383Z,91506.44
2022-08-09T06:38:47.331Z,91500.44
2022-08-09T06:42:01.223Z,91506.06
2022-08-09T06:44:21.686Z,91494.50
2022-08-09T06:47:12.611Z,91490.97
2022-08-09T06:50:13.505Z,91482.66
2022-08-09T06:52:49.420Z,91492.88
2022-08-09T06:55:57.256Z,91501.88
2022-08-09T07:00:46.550Z,91487.50
2022-08-09T07:04:48.052Z,91493.03
2022-08-09T07:07:59.592Z,91485.13
2022-08-09T07:10:14.285Z,91500.31
2022-08-09T07:12:58.213Z,91509.38
2022-08-09T07:16:38.627Z,91480.88
2022-08-09T07:18:16.574Z,91499.03
2022-08-09T07:20:47.826Z,91513.34
2022-08-09T07:23:18.620Z,91490.44
2022-08-09T07:25:48.092Z,91495.91
2022-08-09T07:28:26.285Z,91499.59
2022-08-09T07:30:55.499Z,91498.41
2022-08-09T07:33:22.456Z,91507.84
2022-08-09T07:35:54.212Z,91496.94
2022-08-09T07:38:23.214Z,91508.44
2022-08-09T07:41:00.961Z,91515.22
2022-08-09T07:43:49.868Z,91514.22
2022-08-09T07:46:22.433Z,91521.75
2022-08-09T07:48:59.308Z,91513.84
2022-08-09T07:52:04.613Z,91505.22
2022-08-09T07:54:14.333Z,91523.41
2022-08-09T07:56:48.660Z,91506.47
2022-08-09T07:59:24.915Z,91510.03
2022-08-09T08:01:55.986Z,91514.31
2022-08-09T08:04:31.749Z,91497.63
2022-08-09T08:07:15.551Z,91507.47
2022-08-09T08:09:55.080Z,91505.59
2022-08-09T08:12:43.184Z,91507.50
2022-08-09T08:15:14.269Z,91506.19
2022-08-09T08:17:53.941Z,91506.88
2022-08-09T08:20:28.965Z,91499.38
2022-08-09T08:23:03.693Z,91495.34
2022-08-09T08:25:46.405Z,91499.66
2022-08-09T08:28:18.421Z,91507.00
2022-08-09T08:30:58.680Z,91498.94
2022-08-09T08:33:25.420Z,91506.41
2022-08-09T08:35:59.327Z,91480.75
2022-08-09T08:38:29.617Z,91488.47
2022-08-09T08:41:01.827Z,91493.13
2022-08-09T08:43:33.248Z,91489.06
2022-08-09T08:46:32.055Z,91496.63
2022-08-09T08:48:54.009Z,91495.38
2022-08-09T08:51:24.024Z,91505.03
2022-08-09T08:54:03.640Z,91499.09
2022-08-09T08:56:41.851Z,91497.31
2022-08-09T08:59:19.465Z,91494.59
2022-08-09T09:01:52.181Z,91490.19
2022-08-09T09:04:26.982Z,91492.38
2022-08-09T09:07:00.796Z,91487.00
2022-08-09T09:10:02.067Z,91490.88
2022-08-09T09:12:20.513Z,91498.81
2022-08-09T09:14:49.975Z,91491.22
2022-08-09T09:17:18.739Z,91475.72
2022-08-09T09:19:47.750Z,91489.06
2022-08-09T09:22:17.454Z,91483.47
2022-08-09T09:26:02.599Z,91489.09
2022-08-09T09:28:05.245Z,91488.16
2022-08-09T09:30:41.065Z,91485.31
2022-08-09T09:33:17.909Z,91463.94
2022-08-09T09:36:01.329Z,91472.78
2022-08-09T09:38:49.488Z,91476.25
2022-08-09T09:41:33.304Z,91468.88
2022-08-09T09:44:25.720Z,91470.78
2022-08-09T09:47:08.579Z,91471.53
2022-08-09T09:50:06.811Z,91465.88
2022-08-09T09:52:35.957Z,91461.94
2022-08-09T09:55:23.927Z,91472.81
2022-08-09T09:58:17.376Z,91459.22
2022-08-09T10:00:59.126Z,91472.31
2022-08-09T10:03:57.130Z,91452.84
2022-08-09T10:06:25.487Z,91461.75
2022-08-09T10:09:00.733Z,91454.06
2022-08-09T10:11:59.037Z,91458.06
2022-08-09T10:14:30.276Z,91467.59
2022-08-09T10:17:40.304Z,91462.91
2022-08-09T10:19:57.233Z,91459.97
2022-08-09T10:22:33.619Z,91463.66
2022-08-09T10:25:14.467Z,91461.97
2022-08-09T10:27:56.741Z,91483.13
2022-08-09T10:32:13.259Z,91489.66
2022-08-09T10:33:29.959Z,91483.63
2022-08-09T10:36:11.572Z,91475.06
2022-08-09T10:38:56.252Z,91456.75
2022-08-09T10:41:24.260Z,91462.19
2022-08-09T10:43:59.211Z,91461.69
2022-08-09T10:46:57.671Z,91472.72
2022-08-09T10:49:51.260Z,91467.06
2022-08-09T10:52:29.542Z,91456.78
2022-08-09T10:55:24.218Z,91452.66
2022-08-09T10:57:55.504Z,91458.47
2022-08-09T11:00:34.363Z,91449.78
2022-08-09T11:03:16.209Z,91449.78
2022-08-09T11:06:16.018Z,91437.09
2022-08-09T11:08:51.089Z,91460.50
2022-08-09T11:11:20.602Z,91459.94
2022-08-09T11:14:09.273Z,91443.38
2022-08-09T11:16:43.401Z,91453.84
2022-08-09T11:19:13.795Z,91454.81
2022-08-09T11:22:16.751Z,91412.22
2022-08-09T11:24:57.849Z,91430.69
2022-08-09T11:28:04.036Z,91443.50
2022-08-09T11:30:34.320Z,91449.28
2022-08-09T11:33:06.046Z,91445.38
2022-08-09T11:35:55.468Z,91439.81
2022-08-09T11:38:33.200Z,91440.19
2022-08-09T11:41:14.238Z,91455.03
2022-08-09T11:43:52.843Z,91441.22
2022-08-09T11:46:32.894Z,91420.06
2022-08-09T11:49:05.450Z,91440.16
2022-08-09T11:53:00.750Z,91454.72
2022-08-09T11:55:52.020Z,91449.31
2022-08-09T11:58:14.819Z,91436.44
2022-08-09T12:00:53.078Z,91441.72
2022-08-09T12:03:55.562Z,91431.19
2022-08-09T12:06:17.624Z,91427.19
2022-08-09T12:08:55.826Z,91427.03
2022-08-09T12:11:26.646Z,91423.66
2022-08-09T12:14:07.602Z,91434.81
2022-08-09T12:16:43.136Z,91425.09
2022-08-09T12:19:14.083Z,91439.94
2022-08-09T12:21:50.437Z,91434.84
2022-08-09T12:24:25.190Z,91436.47
2022-08-09T12:29:14.711Z,91434.16
2022-08-09T12:30:01.725Z,91434.75
2022-08-09T12:32:44.636Z,91442.78
2022-08-09T12:35:13.382Z,91449.47
2022-08-09T12:37:51.517Z,91434.94
2022-08-09T12:40:21.278Z,91428.47
2022-08-09T12:42:50.956Z,91429.00
2022-08-09T12:45:32.812Z,91417.78
2022-08-09T12:48:07.906Z,91416.59
2022-08-09T12:50:47.050Z,91411.63
2022-08-09T12:53:44.911Z,91406.81
2022-08-09T12:56:39.241Z,91408.22
2022-08-09T12:59:14.302Z,91402.72
2022-08-09T13:01:48.749Z,91412.53
2022-08-09T13:04:35.826Z,91402.41
2022-08-09T13:07:19.595Z,91406.97
2022-08-09T13:09:55.181Z,91407.31
2022-08-09T13:12:26.862Z,91404.03
2022-08-09T13:15:04.638Z,91401.63
2022-08-09T13:18:03.177Z,91413.13
2022-08-09T13:21:04.228Z,91402.56
2022-08-09T13:24:16.602Z,91399.59
2022-08-09T13:26:50.076Z,91405.94
2022-08-09T13:29:18.570Z,91412.97
2022-08-09T13:32:17.898Z,91396.50
2022-08-09T13:34:52.452Z,91399.78
2022-08-09T13:37:24.729Z,91395.25
2022-08-09T13:41:55.281Z,91389.22
2022-08-09T13:42:55.777Z,91395.25
2022-08-09T13:45:32.143Z,91396.31
2022-08-09T13:48:10.643Z,91403.41
2022-08-09T13:50:40.758Z,91391.00
2022-08-09T13:53:08.151Z,91398.13
2022-08-09T13:55:37.139Z,91410.84
2022-08-09T13:58:05.237Z,91391.13
2022-08-09T14:00:46.700Z,91401.13
2022-08-09T14:04:03.767Z,91406.19
2022-08-09T14:06:03.410Z,91398.41
2022-08-09T14:08:39.487Z,91410.81
2022-08-09T14:11:16.367Z,91413.34
2022-08-09T14:14:22.195Z,91408.47
2022-08-09T14:16:32.305Z,91400.28
2022-08-09T14:19:01.633Z,91407.53
2022-08-09T14:21:29.411Z,91398.75
2022-08-09T14:24:05.454Z,91392.47
2022-08-09T14:26:38.617Z,91388.28
2022-08-09T14:30:04.172Z,91402.75
2022-08-09T14:31:55.230Z,91388.56
2022-08-09T14:34:34.476Z,91399.75
2022-08-09T14:37:06.534Z,91401.19
2022-08-09T14:39:40.461Z,91413.25
2022-08-09T14:42:38.963Z,91411.78
2022-08-09T14:46:45.901Z,91404.91
2022-08-09T14:47:57.408Z,91408.28
2022-08-09T14:50:27.578Z,91409.97
2022-08-09T14:52:55.004Z,91409.19
2022-08-09T14:55:21.779Z,91403.69
2022-08-09T14:57:50.291Z,91395.06
2022-08-09T15:00:17.735Z,91410.22
2022-08-09T15:02:47.338Z,91384.69
2022-08-09T15:05:16.135Z,91398.78
2022-08-09T15:07:45.545Z,91405.56
2022-08-09T15:10:24.803Z,91401.47
2022-08-09T15:12:52.734Z,91395.88
2022-08-09T15:15:20.353Z,91396.53
2022-08-09T15:17:52.383Z,91391.03
2022-08-09T15:21:55.797Z,91379.78
2022-08-09T15:24:03.138Z,91386.34
2022-08-09T15:25:55.654Z,91380.78
2022-08-09T15:28:28.284Z,91372.31
2022-08-09T15:31:10.229Z,91376.75
2022-08-09T15:34:15.472Z,91378.91
2022-08-09T15:36:30.314Z,91377.56
2022-08-09T15:39:01.521Z,91370.41
2022-08-09T15:41:31.354Z,91363.16
2022-08-09T15:44:19.736Z,91378.38
2022-08-09T15:46:49.598Z,91369.03
2022-08-09T15:49:22.114Z,91372.44
2022-08-09T15:52:05.246Z,91375.97
2022-08-09T15:54:49.028Z,91375.56
2022-08-09T15:57:36.013Z,91387.81
2022-08-09T16:00:14.084Z,91382.81
2022-08-09T16:02:54.058Z,91378.38
2022-08-09T16:05:23.802Z,91384.69
2022-08-09T16:07:51.052Z,91378.44
2022-08-09T16:10:54.997Z,91375.75
2022-08-09T16:13:21.154Z,91378.94
2022-08-09T16:16:10.393Z,91373.63
2022-08-09T16:18:44.650Z,91382.38
2022-08-09T16:21:17.224Z,91382.75
2022-08-09T16:23:55.432Z,91381.00
2022-08-09T16:26:35.186Z,91380.53
2022-08-09T16:29:20.383Z,91374.38
2022-08-09T16:32:19.621Z,91378.69
2022-08-09T16:34:56.889Z,91381.00
2022-08-09T16:37:55.328Z,91378.31
2022-08-09T16:40:29.781Z,91375.75
2022-08-09T16:43:02.371Z,91387.06
2022-08-09T16:45:29.221Z,91380.03
2022-08-09T16:48:39.115Z,91383.94
2022-08-09T16:50:49.629Z,91382.63
2022-08-09T16:53:26.788Z,91388.34
2022-08-09T16:56:03.562Z,91391.84
2022-08-09T16:58:36.750Z,91391.28
2022-08-09T17:01:06.236Z,91388.03
2022-08-09T17:03:34.723Z,91399.06
2022-08-09T17:06:06.853Z,91398.84
2022-08-09T17:09:01.446Z,91394.44
2022-08-09T17:11:40.542Z,91401.59
2022-08-09T17:14:25.467Z,91402.47
2022-08-09T17:17:01.500Z,91405.41
2022-08-09T17:19:47.128Z,91406.50
2022-08-09T17:22:35.671Z,91408.16
2022-08-09T17:25:11.620Z,91406.88
2022-08-09T17:27:48.834Z,91411.34
2022-08-09T17:30:16.870Z,91411.97
2022-08-09T17:32:47.885Z,91414.41
2022-08-09T17:35:16.281Z,91412.03
2022-08-09T17:38:12.745Z,91414.09
2022-08-09T17:40:36.196Z,91422.00
2022-08-09T17:43:33.212Z,91420.19
2022-08-09T17:46:03.322Z,91425.53
2022-08-09T17:48:34.019Z,91422.94
2022-08-09T17:51:09.004Z,91429.03
2022-08-09T17:53:43.298Z,91430.81
2022-08-09T17:56:15.100Z,91433.63
2022-08-09T17:58:45.412Z,91438.25
2022-08-09T18:01:22.144Z,91436.75
2022-08-09T18:03:49.557Z,91448.44
2022-08-09T18:06:32.046Z,91447.81
2022-08-09T18:09:03.125Z,91449.16
2022-08-09T18:11:46.790Z,91450.59
2022-08-09T18:14:21.173Z,91454.72
2022-08-09T18:16:49.586Z,91459.44
2022-08-09T18:20:55.889Z,91465.25
2022-08-09T18:22:13.193Z,91473.06
2022-08-09T18:24:46.354Z,91469.31
2022-08-09T18:27:33.652Z,91474.97
2022-08-09T18:30:35.148Z,91475.81
2022-08-09T18:32:54.545Z,91482.09
2022-08-09T18:35:48.030Z,91483.63
2022-08-09T18:38:12.633Z,91498.66
2022-08-09T18:40:40.112Z,91488.19
2022-08-09T18:43:08.949Z,91497.91
2022-08-09T18:46:46.643Z,91491.81
2022-08-09T18:48:30.426Z,91497.78
2022-08-09T18:51:02.168Z,91502.81
2022-08-09T18:53:36.774Z,91511.44
2022-08-09T18:56:19.915Z,91505.88
2022-08-09T18:58:55.500Z,91512.63
2022-08-09T19:01:23.526Z,91514.13
2022-08-09T19:04:00.914Z,91506.81
2022-08-09T19:06:34.155Z,91524.97
2022-08-09T19:09:02.453Z,91516.00
2022-08-09T19:11:37.363Z,91526.13
2022-08-09T19:14:06.639Z,91531.13
2022-08-09T19:16:36.664Z,91527.91
2022-08-09T19:19:21.488Z,91530.91
2022-08-09T19:22:06.372Z,91536.25
2022-08-09T19:25:07.444Z,91535.25
2022-08-09T19:27:21.953Z,91534.19
2022-08-09T19:30:25.305Z,91529.38
2022-08-09T19:32:36.767Z,91538.03
2022-08-09T19:44:01.784Z,91530.81
2022-08-09T19:46:35.326Z,91530.91
2022-08-09T19:50:07.709Z,91533.16
2022-08-09T19:51:56.054Z,91534.09
2022-08-09T19:54:29.755Z,91524.38
2022-08-09T19:56:57.242Z,91540.34
2022-08-09T19:59:58.587Z,91529.97
2022-08-09T20:02:17.258Z,91526.69
2022-08-09T20:05:01.440Z,91536.34
2022-08-09T20:07:57.111Z,91531.75
2022-08-09T20:10:22.415Z,91531.47
2022-08-09T20:12:54.962Z,91532.59
2022-08-09T20:16:37.626Z,91530.38
2022-08-09T20:18:10.594Z,91526.63
2022-08-09T20:20:39.131Z,91526.63
2022-08-09T20:23:06.900Z,91514.88
2022-08-09T20:25:51.340Z,91518.97
2022-08-09T20:28:27.774Z,91523.94
2022-08-09T20:31:05.006Z,91522.59
2022-08-09T20:33:39.237Z,91515.47
2022-08-09T20:36:09.083Z,91528.25
2022-08-09T20:39:07.177Z,91520.69
2022-08-09T20:41:32.020Z,91517.13
2022-08-09T20:44:02.821Z,91524.94
2022-08-09T20:46:43.302Z,91521.25
2022-08-09T20:49:16.092Z,91508.97
2022-08-09T20:51:44.403Z,91524.75
2022-08-09T20:54:12.929Z,91521.25
2022-08-09T20:56:53.478Z,91527.75
2022-08-09T20:59:50.264Z,91525.25
2022-08-09T21:02:10.840Z,91520.41
2022-08-09T21:05:54.696Z,91521.06
2022-08-09T21:07:38.516Z,91517.66
2022-08-09T21:10:06.105Z,91517.72
2022-08-09T21:12:37.006Z,91521.91
2022-08-09T21:15:05.353Z,91519.75
2022-08-09T21:18:20.931Z,91494.94
2022-08-09T21:20:26.697Z,91516.47
2022-08-09T21:22:57.357Z,91523.75
2022-08-09T21:25:43.990Z,91513.22
2022-08-09T21:28:34.950Z,91525.84
2022-08-09T21:31:17.212Z,91527.31
2022-08-09T21:33:57.007Z,91517.47
2022-08-09T21:36:28.752Z,91517.19
2022-08-09T21:38:59.237Z,91519.50
2022-08-09T21:42:04.148Z,91523.00
2022-08-09T21:44:32.983Z,91522.72
2022-08-09T21:47:08.865Z,91524.75
2022-08-09T21:49:42.955Z,91526.84
2022-08-09T21:52:14.743Z,91515.41
2022-08-09T21:54:46.233Z,91520.66
2022-08-09T21:57:37.137Z,91511.00
2022-08-09T22:00:06.825Z,91522.84
2022-08-09T22:02:36.320Z,91519.72
2022-08-09T22:05:17.143Z,91521.47
2022-08-09T22:07:52.224Z,91519.16
2022-08-09T22:10:22.821Z,91519.78
2022-08-09T22:12:50.218Z,91526.03
2022-08-09T22:15:17.083Z,91522.16
2022-08-09T22:17:44.788Z,91517.09
2022-08-09T22:20:16.990Z,91511.13
2022-08-09T22:22:49.439Z,91513.03
2022-08-09T22:26:07.585Z,91517.16
2022-08-09T22:28:08.599Z,91515.41
2022-08-09T22:30:35.291Z,91508.19
2022-08-09T22:33:09.253Z,91514.66
2022-08-09T22:36:02.867Z,91510.56
2022-08-09T22:38:24.592Z,91517.13
2022-08-09T22:40:57.792Z,91517.91
2022-08-09T22:44:01.666Z,91514.97
2022-08-09T22:48:11.598Z,91517.31
2022-08-09T22:49:01.944Z,91511.22
2022-08-09T22:51:39.425Z,91513.91
2022-08-09T22:54:12.784Z,91522.16
2022-08-09T22:56:41.522Z,91516.91
2022-08-09T22:59:56.001Z,91526.03
2022-08-09T23:01:56.134Z,91516.50
2022-08-09T23:04:25.478Z,91523.28
2022-08-09T23:07:14.193Z,91513.44
2022-08-09T23:09:44.345Z,91509.38
2022-08-09T23:12:11.069Z,91506.31
2022-08-09T23:14:42.248Z,91513.91
2022-08-09T23:17:10.591Z,91514.78
2022-08-09T23:20:06.715Z,91510.34
2022-08-09T23:22:27.590Z,91514.84
2022-08-09T23:24:54.342Z,91512.66
2022-08-09T23:27:21.084Z,91503.88
2022-08-09T23:29:47.745Z,91497.56
2022-08-09T23:32:14.506Z,91503.22
2022-08-09T23:34:41.189Z,91500.56
2022-08-09T23:37:08.154Z,91494.59
2022-08-09T23:39:35.022Z,91495.56
2022-08-09T23:42:02.038Z,91491.63
2022-08-09T23:44:28.721Z,91495.41
2022-08-09T23:46:57.328Z,91495.78
2022-08-09T23:49:25.896Z,91461.63
2022-08-09T23:51:53.632Z,91496.94
2022-08-09T23:54:26.449Z,91500.16
2022-08-09T23:56:55.858Z,91494.16
2022-08-09T23:59:26.026Z,91494.16
